Penn Valley, CA (95946)

5:21 AM PDT on August 27, 2014 (GMT -0700)
Lake Wildwood | Change Station
CLOSE
Current Station
Personal Weather Station
Location: Penn Valley, CA
Elevation: 1512 ft
Nearby Weather Stations

Elev 1512 ft 39.23 °N, 121.19 °W | Updated 31 seconds ago

Clear
Clear
64.8 °F
Feels Like 64.8 °F
N
0.0
Wind Variable Wind from NE

Today
High -- | Low -- °F
--% Chance of Precip.
Yesterday
High -- | Low -- °F
Precip. -- in
6:28 AM 7:42 PM
Waxing Crescent, 3% visible
Pressure 30.13 in
Visibility 10.0 miles
Clouds Clear
Dew Point 53 °F
Humidity 66%
Rainfall 0.00 in
Snow Depth Not available.
UV 0 out of 12
Pollen 8.60 out of 12
Ozone Moderate
Flu Activity Not available.
METAR KGOO 271220Z AUTO 10006KT 10SM CLR 19/09 A3013 RMK AO1

More Conditions Fewer Conditions

Pressure 30.13 in
Visibility 10.0 miles
Clouds Clear
Dew Point 53 °F
Humidity 66%
Rainfall 0.00 in
Snow Depth Not available.
UV 0 out of 12
Pollen 8.60 out of 12
Ozone Moderate
Flu Activity Not available.
METAR KGOO 271220Z AUTO 10006KT 10SM CLR 19/09 A3013 RMK AO1

More Conditions Fewer Conditions

10-Day Weather Forecast

Almanac

Astronomy

Aug. 27, 2014 Rise Set
Actual Time 6:28 AM PDT 7:42 PM PDT
Civil Twilight 6:01 AM PDT 8:10 PM PDT
Nautical Twilight 5:27 AM PDT 8:43 PM PDT
Astronomical Twilight 4:53 AM PDT 9:18 PM PDT
Moon 8:28 AM PDT 8:39 PM PDT
Length of Visible Light 14h 09m
Length of Day
13h 13m
Tomorrow will be 2m 25s shorter.
Waxing Crescent, 3% of the Moon is Illuminated
Today
Waxing Crescent
Sep 2
First Quarter
Sep 8
Full
Sep 15
Last Quarter
Sep 24
New

Today's Extremes

State Highs State Lows

Community

WunderPhotos

Upload Photos

1,747,675 photos uploaded!

Nearby

Air Quality

  Air Quality AQ Index Pollutant
Yesterday Moderate
OZONE
Current Moderate
OZONE
Wednesday Moderate
OZONE
Thursday Moderate
OZONE
Friday Moderate
OZONE
Saturday Moderate
OZONE

Snow Depth

Station Depth Elevation
CSS Lab 2 in 6900 ft
Rubicon #2 0 in 7500 ft
Fallen Leaf 0 in 6300 ft
Echo Peak 1 in 7800 ft
Hagan's Meadow 1 in 8000 ft

Earthquake Activity

City Distance Mag. Time & Date
Napa, California 92 miles 2.5 10:56 AM PDT
2014-08-26
Napa, California 91 miles 3.0 6:45 AM PDT
2014-08-26
American Canyon, California 93 miles 2.8 6:12 AM PDT
2014-08-26
American Canyon, California 93 miles 2.7 5:35 AM PDT
2014-08-26
Minimum magnitude displayed is 2.5.

Coastal Water Temperatures

Place Temperature
No Stations Reporting

Nearby Weather Stations